sensor_id;sensor_type;location;lat;lon;timestamp;temperature;humidity
56753;DHT22;42627;42.646;23.642;2023-07-29T00:20:44;17.20;80.20
56753;DHT22;42627;42.646;23.642;2023-07-29T01:17:23;16.70;82.50
56753;DHT22;42627;42.646;23.642;2023-07-29T01:40:21;16.30;83.50
56753;DHT22;42627;42.646;23.642;2023-07-29T01:42:23;16.20;83.70
56753;DHT22;42627;42.646;23.642;2023-07-29T01:44:24;16.10;83.80
56753;DHT22;42627;42.646;23.642;2023-07-29T01:46:26;16.10;83.50
56753;DHT22;42627;42.646;23.642;2023-07-29T01:48:26;16.10;83.70
56753;DHT22;42627;42.646;23.642;2023-07-29T01:50:30;16.20;83.20
56753;DHT22;42627;42.646;23.642;2023-07-29T01:52:32;16.20;83.00
56753;DHT22;42627;42.646;23.642;2023-07-29T01:54:33;16.30;82.80
56753;DHT22;42627;42.646;23.642;2023-07-29T01:56:33;16.20;82.60
56753;DHT22;42627;42.646;23.642;2023-07-29T01:58:34;16.10;83.00
56753;DHT22;42627;42.646;23.642;2023-07-29T02:02:36;16.10;83.00
56753;DHT22;42627;42.646;23.642;2023-07-29T02:04:37;15.80;84.10
56753;DHT22;42627;42.646;23.642;2023-07-29T02:06:38;15.80;84.50
56753;DHT22;42627;42.646;23.642;2023-07-29T02:08:38;15.70;84.50
56753;DHT22;42627;42.646;23.642;2023-07-29T02:10:41;15.70;84.80
56753;DHT22;42627;42.646;23.642;2023-07-29T02:12:45;15.80;84.10
56753;DHT22;42627;42.646;23.642;2023-07-29T02:14:45;15.70;84.00
56753;DHT22;42627;42.646;23.642;2023-07-29T02:16:46;15.70;84.30
56753;DHT22;42627;42.646;23.642;2023-07-29T02:18:47;15.70;84.40
56753;DHT22;42627;42.646;23.642;2023-07-29T02:20:47;15.70;84.30
56753;DHT22;42627;42.646;23.642;2023-07-29T02:22:49;15.80;84.30
56753;DHT22;42627;42.646;23.642;2023-07-29T02:24:50;15.70;84.60
56753;DHT22;42627;42.646;23.642;2023-07-29T02:26:50;15.70;83.90
56753;DHT22;42627;42.646;23.642;2023-07-29T02:28:51;15.70;84.20
56753;DHT22;42627;42.646;23.642;2023-07-29T02:31:22;15.70;84.20
56753;DHT22;42627;42.646;23.642;2023-07-29T02:33:22;15.70;84.10
56753;DHT22;42627;42.646;23.642;2023-07-29T02:35:24;15.50;84.40
56753;DHT22;42627;42.646;23.642;2023-07-29T02:37:24;15.60;84.80
56753;DHT22;42627;42.646;23.642;2023-07-29T02:39:25;15.50;84.80
56753;DHT22;42627;42.646;23.642;2023-07-29T02:41:26;15.50;85.00
56753;DHT22;42627;42.646;23.642;2023-07-29T02:43:26;15.40;85.80
56753;DHT22;42627;42.646;23.642;2023-07-29T02:45:27;15.30;86.10
56753;DHT22;42627;42.646;23.642;2023-07-29T02:47:28;15.30;86.30
56753;DHT22;42627;42.646;23.642;2023-07-29T02:49:28;15.40;86.10
56753;DHT22;42627;42.646;23.642;2023-07-29T02:51:30;15.50;86.00
56753;DHT22;42627;42.646;23.642;2023-07-29T02:53:31;15.40;85.70
56753;DHT22;42627;42.646;23.642;2023-07-29T02:55:31;15.40;86.20
56753;DHT22;42627;42.646;23.642;2023-07-29T02:57:32;15.40;86.00
56753;DHT22;42627;42.646;23.642;2023-07-29T02:59:33;15.40;85.80
56753;DHT22;42627;42.646;23.642;2023-07-29T03:01:34;15.30;85.50
56753;DHT22;42627;42.646;23.642;2023-07-29T03:03:35;15.40;85.30
56753;DHT22;42627;42.646;23.642;2023-07-29T03:05:35;15.40;85.20
56753;DHT22;42627;42.646;23.642;2023-07-29T04:23:00;15.40;89.30
